< < Back
Terminal Aerodrome Forecast


Current Version              Previous Versions:   1  2  3  4  5  6  7  8  9  

Terminal Aerodrome Forecast

979
FTUS44 KOHX 290904 AAA
TAFBNA
TAF AMD
KBNA 290904Z 2909/3006 00000KT P6SM SCT250
     FM291100 00000KT 5SM BR SCT250
     FM291300 27006KT P6SM SCT100=

Latest METAR

964
SAUS70 KWBC 290856
MTRBNA
METAR KBNA 290853Z 00000KT 10SM FEW150 19/17 A3009 RMK AO2 SLP183
T01890172 55006


USA.gov is the U.S. government's official web portal to all federal, state and local government web resources and services.